sensor_id;sensor_type;location;lat;lon;timestamp;temperature;humidity
20337;DHT22;10326;53.660;10.200;2023-07-29T00:01:27;21.60;92.40
20337;DHT22;10326;53.660;10.200;2023-07-29T00:03:55;21.60;92.40
20337;DHT22;10326;53.660;10.200;2023-07-29T00:06:42;21.60;92.50
20337;DHT22;10326;53.660;10.200;2023-07-29T00:09:30;21.60;92.50
20337;DHT22;10326;53.660;10.200;2023-07-29T00:11:59;21.60;92.40
20337;DHT22;10326;53.660;10.200;2023-07-29T00:14:27;21.60;92.40
20337;DHT22;10326;53.660;10.200;2023-07-29T00:17:32;21.60;92.30
20337;DHT22;10326;53.660;10.200;2023-07-29T00:20:43;21.60;92.50
20337;DHT22;10326;53.660;10.200;2023-07-29T00:23:11;21.60;92.30
20337;DHT22;10326;53.660;10.200;2023-07-29T00:25:38;21.60;92.30
20337;DHT22;10326;53.660;10.200;2023-07-29T00:28:07;21.50;92.20
20337;DHT22;10326;53.660;10.200;2023-07-29T00:30:44;21.50;92.30
20337;DHT22;10326;53.660;10.200;2023-07-29T00:33:13;21.50;92.20
20337;DHT22;10326;53.660;10.200;2023-07-29T00:35:43;21.50;92.20
20337;DHT22;10326;53.660;10.200;2023-07-29T00:38:10;21.50;92.20
20337;DHT22;10326;53.660;10.200;2023-07-29T00:40:45;21.40;92.20
20337;DHT22;10326;53.660;10.200;2023-07-29T00:43:16;21.40;92.40
20337;DHT22;10326;53.660;10.200;2023-07-29T00:45:44;21.40;92.20
20337;DHT22;10326;53.660;10.200;2023-07-29T00:48:21;21.40;92.20
20337;DHT22;10326;53.660;10.200;2023-07-29T00:51:24;21.40;92.20
20337;DHT22;10326;53.660;10.200;2023-07-29T00:54:35;21.30;92.20
20337;DHT22;10326;53.660;10.200;2023-07-29T00:57:10;21.30;92.00
20337;DHT22;10326;53.660;10.200;2023-07-29T01:00:11;21.30;92.10
20337;DHT22;10326;53.660;10.200;2023-07-29T01:02:41;21.20;92.10
20337;DHT22;10326;53.660;10.200;2023-07-29T01:05:14;21.20;92.10
20337;DHT22;10326;53.660;10.200;2023-07-29T01:18:41;21.10;92.10
20337;DHT22;10326;53.660;10.200;2023-07-29T01:24:27;21.10;92.00
20337;DHT22;10326;53.660;10.200;2023-07-29T01:27:25;21.10;92.10
20337;DHT22;10326;53.660;10.200;2023-07-29T01:29:43;21.00;92.10
20337;DHT22;10326;53.660;10.200;2023-07-29T01:32:25;21.00;92.10
20337;DHT22;10326;53.660;10.200;2023-07-29T01:35:03;21.00;92.20
20337;DHT22;10326;53.660;10.200;2023-07-29T01:37:37;20.90;92.10
20337;DHT22;10326;53.660;10.200;2023-07-29T01:40:13;20.90;92.20
20337;DHT22;10326;53.660;10.200;2023-07-29T01:42:42;20.90;92.30
20337;DHT22;10326;53.660;10.200;2023-07-29T01:45:11;21.00;92.30
20337;DHT22;10326;53.660;10.200;2023-07-29T01:47:38;20.90;92.40
20337;DHT22;10326;53.660;10.200;2023-07-29T01:50:08;20.90;92.40
20337;DHT22;10326;53.660;10.200;2023-07-29T01:52:37;20.90;92.40
20337;DHT22;10326;53.660;10.200;2023-07-29T01:55:05;20.90;92.50
20337;DHT22;10326;53.660;10.200;2023-07-29T01:57:51;20.90;92.50
20337;DHT22;10326;53.660;10.200;2023-07-29T02:00:59;20.90;92.70
20337;DHT22;10326;53.660;10.200;2023-07-29T02:03:34;20.90;92.50
20337;DHT22;10326;53.660;10.200;2023-07-29T02:06:02;20.90;92.60
20337;DHT22;10326;53.660;10.200;2023-07-29T02:08:30;20.90;92.90
20337;DHT22;10326;53.660;10.200;2023-07-29T02:10:57;21.00;92.70
20337;DHT22;10326;53.660;10.200;2023-07-29T02:13:26;20.90;92.70
20337;DHT22;10326;53.660;10.200;2023-07-29T02:15:53;21.00;92.80
20337;DHT22;10326;53.660;10.200;2023-07-29T09:15:02;23.20;96.50
20337;DHT22;10326;53.660;10.200;2023-07-29T09:17:40;23.20;96.30
20337;DHT22;10326;53.660;10.200;2023-07-29T09:20:38;23.20;96.40
20337;DHT22;10326;53.660;10.200;2023-07-29T09:23:19;23.20;96.50
20337;DHT22;10326;53.660;10.200;2023-07-29T09:26:07;23.20;96.40
20337;DHT22;10326;53.660;10.200;2023-07-29T09:28:38;23.20;96.50
20337;DHT22;10326;53.660;10.200;2023-07-29T09:31:38;23.20;96.30
20337;DHT22;10326;53.660;10.200;2023-07-29T09:34:32;23.10;96.50
20337;DHT22;10326;53.660;10.200;2023-07-29T09:36:59;23.10;96.40
20337;DHT22;10326;53.660;10.200;2023-07-29T09:39:28;23.20;96.50
20337;DHT22;10326;53.660;10.200;2023-07-29T09:41:55;23.20;96.60
20337;DHT22;10326;53.660;10.200;2023-07-29T09:44:23;23.20;96.50
20337;DHT22;10326;53.660;10.200;2023-07-29T09:46:51;23.20;96.50
20337;DHT22;10326;53.660;10.200;2023-07-29T09:49:19;23.30;96.60
20337;DHT22;10326;53.660;10.200;2023-07-29T09:51:46;23.30;96.50
20337;DHT22;10326;53.660;10.200;2023-07-29T09:54:13;23.30;96.20
20337;DHT22;10326;53.660;10.200;2023-07-29T09:56:42;23.40;96.30
20337;DHT22;10326;53.660;10.200;2023-07-29T09:59:14;23.40;96.30
20337;DHT22;10326;53.660;10.200;2023-07-29T10:01:45;23.40;96.30
20337;DHT22;10326;53.660;10.200;2023-07-29T10:04:15;23.50;96.30
20337;DHT22;10326;53.660;10.200;2023-07-29T10:09:20;23.60;95.70
20337;DHT22;10326;53.660;10.200;2023-07-29T10:11:49;23.60;95.90
20337;DHT22;10326;53.660;10.200;2023-07-29T10:14:20;23.60;95.90
20337;DHT22;10326;53.660;10.200;2023-07-29T10:16:47;23.60;95.70
20337;DHT22;10326;53.660;10.200;2023-07-29T10:19:17;23.60;95.90
20337;DHT22;10326;53.660;10.200;2023-07-29T10:21:48;23.70;95.90
20337;DHT22;10326;53.660;10.200;2023-07-29T10:24:19;23.70;95.80
20337;DHT22;10326;53.660;10.200;2023-07-29T10:26:57;23.70;95.80
20337;DHT22;10326;53.660;10.200;2023-07-29T10:29:25;23.80;95.70
20337;DHT22;10326;53.660;10.200;2023-07-29T10:31:57;23.80;95.50
20337;DHT22;10326;53.660;10.200;2023-07-29T10:34:30;23.80;95.50
20337;DHT22;10326;53.660;10.200;2023-07-29T10:36:58;23.80;95.60
20337;DHT22;10326;53.660;10.200;2023-07-29T10:39:25;23.90;95.60
20337;DHT22;10326;53.660;10.200;2023-07-29T10:41:57;23.90;95.60
20337;DHT22;10326;53.660;10.200;2023-07-29T10:44:47;24.00;95.60
20337;DHT22;10326;53.660;10.200;2023-07-29T10:47:18;24.10;95.50
20337;DHT22;10326;53.660;10.200;2023-07-29T10:49:50;24.10;95.70
20337;DHT22;10326;53.660;10.200;2023-07-29T10:52:40;24.20;95.30
20337;DHT22;10326;53.660;10.200;2023-07-29T10:55:27;24.30;94.80
20337;DHT22;10326;53.660;10.200;2023-07-29T11:00:31;24.30;94.00
20337;DHT22;10326;53.660;10.200;2023-07-29T11:03:01;24.30;94.40
20337;DHT22;10326;53.660;10.200;2023-07-29T11:05:45;24.40;94.40
20337;DHT22;10326;53.660;10.200;2023-07-29T11:08:28;24.40;94.10
20337;DHT22;10326;53.660;10.200;2023-07-29T11:11:03;24.40;93.70
20337;DHT22;10326;53.660;10.200;2023-07-29T11:13:33;24.40;93.40
20337;DHT22;10326;53.660;10.200;2023-07-29T11:16:09;24.40;93.60
20337;DHT22;10326;53.660;10.200;2023-07-29T11:18:43;24.30;93.50
20337;DHT22;10326;53.660;10.200;2023-07-29T11:21:14;24.30;93.50
20337;DHT22;10326;53.660;10.200;2023-07-29T11:23:49;24.30;93.40
20337;DHT22;10326;53.660;10.200;2023-07-29T11:26:17;24.30;93.50
20337;DHT22;10326;53.660;10.200;2023-07-29T11:28:46;24.30;93.70
20337;DHT22;10326;53.660;10.200;2023-07-29T11:31:14;24.30;93.60
20337;DHT22;10326;53.660;10.200;2023-07-29T11:33:43;24.30;93.60
20337;DHT22;10326;53.660;10.200;2023-07-29T11:36:20;24.30;93.80
20337;DHT22;10326;53.660;10.200;2023-07-29T11:38:49;24.40;93.40
20337;DHT22;10326;53.660;10.200;2023-07-29T11:41:21;24.40;93.50
20337;DHT22;10326;53.660;10.200;2023-07-29T11:43:49;24.40;93.30
20337;DHT22;10326;53.660;10.200;2023-07-29T11:49:05;24.50;93.20
20337;DHT22;10326;53.660;10.200;2023-07-29T11:51:41;24.50;93.20
20337;DHT22;10326;53.660;10.200;2023-07-29T11:54:15;24.50;93.20
20337;DHT22;10326;53.660;10.200;2023-07-29T11:57:00;24.50;92.90
20337;DHT22;10326;53.660;10.200;2023-07-29T11:59:42;24.50;93.00
20337;DHT22;10326;53.660;10.200;2023-07-29T12:02:36;24.60;93.20
20337;DHT22;10326;53.660;10.200;2023-07-29T12:05:05;24.60;93.20
20337;DHT22;10326;53.660;10.200;2023-07-29T12:07:38;24.70;92.80
20337;DHT22;10326;53.660;10.200;2023-07-29T12:10:10;24.80;92.90
20337;DHT22;10326;53.660;10.200;2023-07-29T12:12:40;24.90;92.60
20337;DHT22;10326;53.660;10.200;2023-07-29T12:15:42;24.90;92.80
20337;DHT22;10326;53.660;10.200;2023-07-29T12:18:19;25.00;92.10
20337;DHT22;10326;53.660;10.200;2023-07-29T12:20:58;25.10;92.20
20337;DHT22;10326;53.660;10.200;2023-07-29T12:26:36;25.20;91.60
20337;DHT22;10326;53.660;10.200;2023-07-29T12:29:30;25.30;91.70
20337;DHT22;10326;53.660;10.200;2023-07-29T12:31:59;25.30;91.50
20337;DHT22;10326;53.660;10.200;2023-07-29T12:34:30;25.40;92.10
20337;DHT22;10326;53.660;10.200;2023-07-29T12:36:59;25.50;91.80
20337;DHT22;10326;53.660;10.200;2023-07-29T12:39:28;25.60;92.00
20337;DHT22;10326;53.660;10.200;2023-07-29T12:41:59;25.60;91.90
20337;DHT22;10326;53.660;10.200;2023-07-29T12:44:33;25.70;91.30
20337;DHT22;10326;53.660;10.200;2023-07-29T12:47:04;25.80;90.80
20337;DHT22;10326;53.660;10.200;2023-07-29T12:49:34;25.90;90.70
20337;DHT22;10326;53.660;10.200;2023-07-29T12:52:01;25.90;91.10
20337;DHT22;10326;53.660;10.200;2023-07-29T12:54:29;26.00;91.00
20337;DHT22;10326;53.660;10.200;2023-07-29T12:57:05;26.00;91.40
20337;DHT22;10326;53.660;10.200;2023-07-29T12:59:33;26.10;90.90
20337;DHT22;10326;53.660;10.200;2023-07-29T13:02:00;26.20;91.00
20337;DHT22;10326;53.660;10.200;2023-07-29T13:04:27;26.30;90.60
20337;DHT22;10326;53.660;10.200;2023-07-29T13:07:04;26.40;90.40
20337;DHT22;10326;53.660;10.200;2023-07-29T13:09:37;26.40;89.60
20337;DHT22;10326;53.660;10.200;2023-07-29T13:12:10;26.50;89.20
20337;DHT22;10326;53.660;10.200;2023-07-29T13:14:37;26.40;87.60
20337;DHT22;10326;53.660;10.200;2023-07-29T13:17:07;26.40;87.20
20337;DHT22;10326;53.660;10.200;2023-07-29T13:19:34;26.30;86.70
20337;DHT22;10326;53.660;10.200;2023-07-29T13:22:03;26.30;86.90
20337;DHT22;10326;53.660;10.200;2023-07-29T13:24:31;26.20;85.80
20337;DHT22;10326;53.660;10.200;2023-07-29T13:26:59;26.20;86.90
20337;DHT22;10326;53.660;10.200;2023-07-29T13:29:36;26.20;87.20
20337;DHT22;10326;53.660;10.200;2023-07-29T13:32:07;26.20;86.10
20337;DHT22;10326;53.660;10.200;2023-07-29T13:34:34;26.20;85.40
20337;DHT22;10326;53.660;10.200;2023-07-29T13:37:06;26.10;86.80
20337;DHT22;10326;53.660;10.200;2023-07-29T13:39:34;26.20;88.10
20337;DHT22;10326;53.660;10.200;2023-07-29T13:42:01;26.20;87.50
20337;DHT22;10326;53.660;10.200;2023-07-29T13:44:29;26.20;86.50
20337;DHT22;10326;53.660;10.200;2023-07-29T13:46:57;26.20;86.00
20337;DHT22;10326;53.660;10.200;2023-07-29T13:49:24;26.20;85.50
20337;DHT22;10326;53.660;10.200;2023-07-29T13:51:52;26.20;85.80
20337;DHT22;10326;53.660;10.200;2023-07-29T13:54:19;26.20;86.60
20337;DHT22;10326;53.660;10.200;2023-07-29T13:59:24;26.20;85.60
20337;DHT22;10326;53.660;10.200;2023-07-29T14:01:51;26.10;85.50
20337;DHT22;10326;53.660;10.200;2023-07-29T14:04:20;26.10;86.00
20337;DHT22;10326;53.660;10.200;2023-07-29T14:06:50;26.10;85.90
20337;DHT22;10326;53.660;10.200;2023-07-29T14:09:21;26.10;86.60
20337;DHT22;10326;53.660;10.200;2023-07-29T14:12:03;26.20;85.10
20337;DHT22;10326;53.660;10.200;2023-07-29T14:14:38;26.20;84.90
20337;DHT22;10326;53.660;10.200;2023-07-29T14:17:24;26.20;84.50
20337;DHT22;10326;53.660;10.200;2023-07-29T14:20:15;26.20;84.50
20337;DHT22;10326;53.660;10.200;2023-07-29T14:22:46;26.20;85.70
20337;DHT22;10326;53.660;10.200;2023-07-29T14:28:41;26.20;84.80
20337;DHT22;10326;53.660;10.200;2023-07-29T14:31:25;26.30;84.80
20337;DHT22;10326;53.660;10.200;2023-07-29T14:34:07;26.30;84.30
20337;DHT22;10326;53.660;10.200;2023-07-29T14:36:40;26.30;86.00
20337;DHT22;10326;53.660;10.200;2023-07-29T14:43:00;26.40;85.20
20337;DHT22;10326;53.660;10.200;2023-07-29T14:45:54;26.40;84.00
20337;DHT22;10326;53.660;10.200;2023-07-29T14:48:50;26.40;84.50
20337;DHT22;10326;53.660;10.200;2023-07-29T14:51:32;26.40;85.10
20337;DHT22;10326;53.660;10.200;2023-07-29T14:54:01;26.50;83.70
20337;DHT22;10326;53.660;10.200;2023-07-29T14:56:29;26.50;84.00
20337;DHT22;10326;53.660;10.200;2023-07-29T14:59:03;26.40;83.80
20337;DHT22;10326;53.660;10.200;2023-07-29T15:01:56;26.40;83.70
20337;DHT22;10326;53.660;10.200;2023-07-29T15:04:25;26.40;84.40
20337;DHT22;10326;53.660;10.200;2023-07-29T15:06:53;26.40;84.50
20337;DHT22;10326;53.660;10.200;2023-07-29T15:09:22;26.40;84.60
20337;DHT22;10326;53.660;10.200;2023-07-29T15:11:54;26.50;83.90
20337;DHT22;10326;53.660;10.200;2023-07-29T15:14:24;26.50;83.60
20337;DHT22;10326;53.660;10.200;2023-07-29T15:16:52;26.50;84.40
20337;DHT22;10326;53.660;10.200;2023-07-29T15:19:21;26.60;83.90
20337;DHT22;10326;53.660;10.200;2023-07-29T15:21:49;26.70;83.30
20337;DHT22;10326;53.660;10.200;2023-07-29T15:24:19;26.70;83.50
20337;DHT22;10326;53.660;10.200;2023-07-29T15:27:14;26.70;83.90
20337;DHT22;10326;53.660;10.200;2023-07-29T15:30:00;26.80;84.00
20337;DHT22;10326;53.660;10.200;2023-07-29T15:32:52;26.80;82.40
20337;DHT22;10326;53.660;10.200;2023-07-29T15:35:31;26.90;83.10
20337;DHT22;10326;53.660;10.200;2023-07-29T15:38:10;26.90;83.50
20337;DHT22;10326;53.660;10.200;2023-07-29T15:40:38;27.00;83.20
20337;DHT22;10326;53.660;10.200;2023-07-29T15:43:09;27.00;83.30
20337;DHT22;10326;53.660;10.200;2023-07-29T15:45:45;27.00;82.40
20337;DHT22;10326;53.660;10.200;2023-07-29T15:48:13;27.00;83.00
20337;DHT22;10326;53.660;10.200;2023-07-29T15:50:42;27.10;82.80
20337;DHT22;10326;53.660;10.200;2023-07-29T15:53:42;27.10;82.40
20337;DHT22;10326;53.660;10.200;2023-07-29T15:57:21;27.10;82.30
20337;DHT22;10326;53.660;10.200;2023-07-29T16:00:02;27.10;81.30
20337;DHT22;10326;53.660;10.200;2023-07-29T16:16:34;26.90;80.10
20337;DHT22;10326;53.660;10.200;2023-07-29T16:19:02;26.80;80.00
20337;DHT22;10326;53.660;10.200;2023-07-29T16:21:33;26.70;80.10
20337;DHT22;10326;53.660;10.200;2023-07-29T16:28:05;26.50;79.80
20337;DHT22;10326;53.660;10.200;2023-07-29T16:31:19;26.50;79.90
20337;DHT22;10326;53.660;10.200;2023-07-29T16:33:51;26.30;80.50
20337;DHT22;10326;53.660;10.200;2023-07-29T16:36:20;26.30;80.00
20337;DHT22;10326;53.660;10.200;2023-07-29T16:39:00;26.20;79.40
20337;DHT22;10326;53.660;10.200;2023-07-29T16:41:31;26.10;77.60
20337;DHT22;10326;53.660;10.200;2023-07-29T16:46:52;25.70;78.50
20337;DHT22;10326;53.660;10.200;2023-07-29T16:49:26;25.50;79.40
20337;DHT22;10326;53.660;10.200;2023-07-29T17:19:43;23.70;84.00
20337;DHT22;10326;53.660;10.200;2023-07-29T17:31:47;23.30;85.80
20337;DHT22;10326;53.660;10.200;2023-07-29T17:58:49;23.10;87.40
20337;DHT22;10326;53.660;10.200;2023-07-29T18:09:47;23.00;88.50
20337;DHT22;10326;53.660;10.200;2023-07-29T18:12:22;22.90;88.90
20337;DHT22;10326;53.660;10.200;2023-07-29T19:13:27;22.60;91.20
20337;DHT22;10326;53.660;10.200;2023-07-29T19:20:14;22.60;91.60
20337;DHT22;10326;53.660;10.200;2023-07-29T19:22:46;22.60;91.30
20337;DHT22;10326;53.660;10.200;2023-07-29T19:29:00;22.60;91.80
20337;DHT22;10326;53.660;10.200;2023-07-29T19:31:38;22.60;91.80
20337;DHT22;10326;53.660;10.200;2023-07-29T19:34:10;22.60;91.40
20337;DHT22;10326;53.660;10.200;2023-07-29T19:37:13;22.60;91.60
20337;DHT22;10326;53.660;10.200;2023-07-29T19:44:16;22.60;91.80
20337;DHT22;10326;53.660;10.200;2023-07-29T19:47:17;22.60;91.70
20337;DHT22;10326;53.660;10.200;2023-07-29T19:49:49;22.50;91.50
20337;DHT22;10326;53.660;10.200;2023-07-29T19:52:29;22.50;91.60
20337;DHT22;10326;53.660;10.200;2023-07-29T19:55:35;22.50;91.50
20337;DHT22;10326;53.660;10.200;2023-07-29T19:58:46;22.50;91.80
20337;DHT22;10326;53.660;10.200;2023-07-29T20:01:19;22.50;91.60
20337;DHT22;10326;53.660;10.200;2023-07-29T20:03:53;22.50;91.80
20337;DHT22;10326;53.660;10.200;2023-07-29T20:09:18;22.50;91.70
20337;DHT22;10326;53.660;10.200;2023-07-29T20:13:05;22.40;91.90
20337;DHT22;10326;53.660;10.200;2023-07-29T20:19:50;22.40;91.90
20337;DHT22;10326;53.660;10.200;2023-07-29T20:23:23;22.40;91.80
20337;DHT22;10326;53.660;10.200;2023-07-29T20:26:17;22.30;91.60
20337;DHT22;10326;53.660;10.200;2023-07-29T20:28:59;22.40;91.90
20337;DHT22;10326;53.660;10.200;2023-07-29T20:31:26;22.30;91.60
20337;DHT22;10326;53.660;10.200;2023-07-29T20:33:54;22.30;91.60
20337;DHT22;10326;53.660;10.200;2023-07-29T20:36:22;22.30;91.70
20337;DHT22;10326;53.660;10.200;2023-07-29T20:39:29;22.30;91.70
20337;DHT22;10326;53.660;10.200;2023-07-29T20:42:20;22.30;91.90
20337;DHT22;10326;53.660;10.200;2023-07-29T20:52:18;22.30;91.70
20337;DHT22;10326;53.660;10.200;2023-07-29T20:54:48;22.20;91.50
20337;DHT22;10326;53.660;10.200;2023-07-29T20:57:22;22.20;91.50
20337;DHT22;10326;53.660;10.200;2023-07-29T20:59:50;22.20;91.50
20337;DHT22;10326;53.660;10.200;2023-07-29T21:03:06;22.10;91.40
20337;DHT22;10326;53.660;10.200;2023-07-29T21:06:36;22.10;91.40
20337;DHT22;10326;53.660;10.200;2023-07-29T21:09:18;22.10;91.50
20337;DHT22;10326;53.660;10.200;2023-07-29T21:11:54;22.00;91.30
20337;DHT22;10326;53.660;10.200;2023-07-29T21:22:34;22.00;91.30
20337;DHT22;10326;53.660;10.200;2023-07-29T21:25:30;21.90;91.10
20337;DHT22;10326;53.660;10.200;2023-07-29T21:28:02;21.80;91.10
20337;DHT22;10326;53.660;10.200;2023-07-29T21:31:14;21.80;91.10
20337;DHT22;10326;53.660;10.200;2023-07-29T21:34:07;21.70;91.10
20337;DHT22;10326;53.660;10.200;2023-07-29T21:37:29;21.70;91.20
20337;DHT22;10326;53.660;10.200;2023-07-29T21:40:13;21.70;91.30
20337;DHT22;10326;53.660;10.200;2023-07-29T21:42:47;21.60;91.30
20337;DHT22;10326;53.660;10.200;2023-07-29T21:49:57;21.60;91.40
20337;DHT22;10326;53.660;10.200;2023-07-29T21:56:40;21.50;91.40
20337;DHT22;10326;53.660;10.200;2023-07-29T22:00:05;21.50;91.40
20337;DHT22;10326;53.660;10.200;2023-07-29T22:02:55;21.40;91.50
20337;DHT22;10326;53.660;10.200;2023-07-29T22:05:45;21.40;91.20
20337;DHT22;10326;53.660;10.200;2023-07-29T22:11:33;21.30;91.40
20337;DHT22;10326;53.660;10.200;2023-07-29T22:14:03;21.30;91.30
20337;DHT22;10326;53.660;10.200;2023-07-29T22:16:32;21.30;91.40
20337;DHT22;10326;53.660;10.200;2023-07-29T22:19:01;21.30;91.40
20337;DHT22;10326;53.660;10.200;2023-07-29T22:21:38;21.30;91.50
20337;DHT22;10326;53.660;10.200;2023-07-29T22:24:19;21.20;91.60
20337;DHT22;10326;53.660;10.200;2023-07-29T23:11:05;21.10;92.20
20337;DHT22;10326;53.660;10.200;2023-07-29T23:44:38;21.00;92.40
